Time;durP1;ratioP1;P1;durP2;ratioP2;P2;SDS_P1;SDS_P2;PMS_P1;PMS_P2;Temp;Humidity;BMP_temperature;BMP_pressure;BME280_temperature;BME280_humidity;BME280_pressure;Samples;Min_cycle;Max_cycle;Signal;HPM_P1;HPM_P2
2022/08/23 00:06:52;;;;;;;7.20;5.50;;;;;;;18.72;85.05;99165.90;431426;1271;145994;-60
2022/08/23 00:16:59;;;;;;;8.20;6.10;;;;;;;18.59;85.50;99175.73;430769;1271;148120;-61
2022/08/23 00:27:09;;;;;;;8.30;6.20;;;;;;;18.47;85.80;99171.43;431584;1271;146686;-61
2022/08/23 00:37:16;;;;;;;10.20;7.60;;;;;;;18.37;86.33;99178.88;431000;1271;142517;-60
2022/08/23 00:47:40;;;;;;;8.60;6.30;;;;;;;18.31;86.74;99198.14;430097;1271;145841;-60
2022/08/23 00:57:49;;;;;;;8.80;6.40;;;;;;;18.29;86.92;99219.23;430906;1271;141486;-59
2022/08/23 01:07:59;;;;;;;9.60;7.50;;;;;;;18.32;87.35;99220.30;430560;1271;142506;-61
2022/08/23 01:18:08;;;;;;;8.90;7.30;;;;;;;18.40;87.12;99228.01;431525;1271;145919;-60
2022/08/23 01:28:14;;;;;;;9.60;8.50;;;;;;;18.45;87.36;99235.98;431159;1271;142657;-60
2022/08/23 01:38:21;;;;;;;11.90;9.00;;;;;;;18.51;87.35;99224.77;430427;1270;143264;-60
2022/08/23 01:48:26;;;;;;;10.40;8.50;;;;;;;18.57;87.22;99207.99;430754;1271;142535;-60
2022/08/23 01:58:35;;;;;;;10.30;9.30;;;;;;;18.63;87.00;99201.54;430733;1271;142863;-60
2022/08/23 02:19:12;;;;;;;10.00;8.10;;;;;;;18.76;86.74;99234.92;432017;1271;145264;-61
2022/08/23 02:29:19;;;;;;;8.60;7.50;;;;;;;18.82;86.73;99255.26;429830;1271;146881;-60
2022/08/23 02:39:29;;;;;;;9.30;8.30;;;;;;;18.82;86.77;99246.35;431234;1271;148129;-59
2022/08/23 02:49:35;;;;;;;9.90;8.70;;;;;;;18.81;86.99;99253.09;430555;1271;142723;-61
2022/08/23 02:59:41;;;;;;;13.00;8.60;;;;;;;18.75;87.07;99247.48;430873;1271;145583;-60
2022/08/23 03:09:46;;;;;;;11.70;9.90;;;;;;;18.71;87.50;99232.80;430535;1271;142732;-60
2022/08/23 03:19:52;;;;;;;10.60;9.10;;;;;;;18.65;87.78;99208.11;429978;1271;143785;-60
2022/08/23 03:29:59;;;;;;;11.10;9.00;;;;;;;18.61;87.98;99209.16;432572;1271;143702;-61
2022/08/23 03:40:07;;;;;;;9.30;8.10;;;;;;;18.55;88.41;99234.84;431023;1271;142500;-61
2022/08/23 03:50:13;;;;;;;16.30;9.00;;;;;;;18.47;88.86;99226.42;429907;1271;143491;-61
2022/08/23 04:00:20;;;;;;;14.90;9.40;;;;;;;18.42;89.28;99233.82;430549;1271;143622;-60
2022/08/23 04:10:26;;;;;;;10.90;9.30;;;;;;;18.46;89.57;99220.96;430833;1271;142117;-60
2022/08/23 04:20:31;;;;;;;10.70;9.10;;;;;;;18.58;89.77;99218.59;430009;1271;149471;-61
2022/08/23 04:30:38;;;;;;;14.00;10.50;;;;;;;18.75;89.30;99213.74;431017;1271;142162;-61
2022/08/23 04:51:16;;;;;;;14.30;11.20;;;;;;;18.81;89.18;99219.05;430869;1271;143472;-65
2022/08/23 05:01:24;;;;;;;13.70;11.60;;;;;;;18.82;89.11;99226.23;430678;1271;142093;-61
2022/08/23 05:11:30;;;;;;;12.40;11.00;;;;;;;18.88;89.06;99232.14;431772;1271;143157;-60
2022/08/23 05:21:36;;;;;;;10.00;9.10;;;;;;;19.03;88.89;99242.45;446983;1271;142941;-60
2022/08/23 05:31:41;;;;;;;10.10;9.00;;;;;;;19.31;88.34;99253.80;446667;1270;143038;-61
2022/08/23 05:41:50;;;;;;;8.40;7.70;;;;;;;19.53;87.54;99255.81;447360;1271;142670;-61
2022/08/23 05:51:56;;;;;;;8.30;7.50;;;;;;;19.71;86.49;99250.61;447384;1270;199039;-60
2022/08/23 06:02:02;;;;;;;10.30;8.30;;;;;;;19.97;85.56;99261.42;446778;1271;142702;-60
2022/08/23 06:12:08;;;;;;;7.70;6.80;;;;;;;20.11;84.88;99268.80;447611;1268;143897;-61
2022/08/23 06:22:14;;;;;;;9.00;7.60;;;;;;;20.29;84.46;99258.73;433431;1271;143759;-60
2022/08/23 06:32:20;;;;;;;15.30;7.70;;;;;;;20.43;83.94;99259.48;445025;1270;1494402;-61
2022/08/23 06:42:25;;;;;;;10.90;8.20;;;;;;;20.63;83.71;99268.48;447560;1271;143679;-61
2022/08/23 06:52:49;;;;;;;10.20;6.50;;;;;;;20.87;83.02;99273.87;446820;1271;144222;-61
2022/08/23 07:02:55;;;;;;;8.20;6.60;;;;;;;21.10;82.60;99280.00;447599;1271;143622;-60
2022/08/23 07:13:02;;;;;;;7.60;6.80;;;;;;;21.49;81.92;99283.58;447567;1271;142221;-60
2022/08/23 07:23:08;;;;;;;7.30;5.20;;;;;;;22.01;80.71;99291.73;446841;1271;142586;-61
2022/08/23 07:33:14;;;;;;;7.00;4.70;;;;;;;22.33;78.99;99303.33;447628;1271;142723;-60
2022/08/23 07:43:20;;;;;;;6.80;5.50;;;;;;;22.45;78.40;99320.65;447635;1268;142680;-61
2022/08/23 07:53:25;;;;;;;6.40;5.40;;;;;;;22.65;77.49;99322.60;446856;1271;143015;-60
2022/08/23 08:03:43;;;;;;;7.40;6.80;;;;;;;23.15;76.23;99320.39;447593;1270;142764;-60
2022/08/23 08:13:50;;;;;;;9.60;6.80;;;;;;;23.92;75.69;99317.59;446859;1271;142968;-60
2022/08/23 08:23:55;;;;;;;;;;;;;;;24.60;73.67;99327.04;436820;1271;143757;-60
2022/08/23 08:34:02;;;;;;;8.80;7.90;;;;;;;24.94;72.27;99341.17;431781;1271;129064;-61
2022/08/23 08:44:18;;;;;;;10.20;7.60;;;;;;;25.23;71.57;99354.24;433549;1271;143851;-61
2022/08/23 08:54:30;;;;;;;8.20;6.60;;;;;;;25.54;70.84;99360.20;432806;1271;144410;-61
2022/08/23 09:04:37;;;;;;;9.10;7.00;;;;;;;25.44;70.41;99364.48;430331;1271;142673;-60
2022/08/23 09:14:57;;;;;;;10.90;7.70;;;;;;;25.11;70.60;99369.15;432721;1271;142877;-61
2022/08/23 09:25:03;;;;;;;7.30;6.30;;;;;;;25.52;70.44;99366.09;431606;1271;147618;-60
2022/08/23 09:35:17;;;;;;;9.20;5.80;;;;;;;26.44;68.82;99363.41;432150;1270;147718;-61
2022/08/23 09:45:33;;;;;;;9.80;6.30;;;;;;;27.82;66.43;99369.69;432802;1271;141549;-60
2022/08/23 09:55:43;;;;;;;7.30;5.90;;;;;;;28.38;63.79;99371.05;433949;1271;143337;-61
2022/08/23 10:05:52;;;;;;;6.70;6.10;;;;;;;27.71;63.26;99378.88;432920;1271;143702;-60
2022/08/23 10:16:08;;;;;;;8.80;5.80;;;;;;;26.78;63.92;99382.86;432936;1271;144480;-59
2022/08/23 10:26:23;;;;;;;6.10;5.50;;;;;;;26.05;64.58;99395.30;432561;1272;141956;-60
2022/08/23 10:36:38;;;;;;;8.70;5.80;;;;;;;24.97;66.12;99420.45;433062;1271;144296;-59
2022/08/23 10:46:52;;;;;;;7.80;6.40;;;;;;;24.27;68.12;99416.32;430574;1271;146351;-60
2022/08/23 10:56:58;;;;;;;9.40;6.00;;;;;;;23.94;69.75;99424.43;433865;1271;143711;-61
2022/08/23 11:07:18;;;;;;;9.30;7.10;;;;;;;23.72;70.70;99417.84;431166;1271;141283;-60
2022/08/23 11:17:30;;;;;;;9.60;7.60;;;;;;;23.82;71.61;99401.58;431589;1271;143307;-61
2022/08/23 11:27:40;;;;;;;10.60;8.90;;;;;;;24.03;72.29;99383.65;430060;1271;142405;-60
2022/08/23 11:38:06;;;;;;;11.50;8.70;;;;;;;23.86;73.38;99384.14;430001;1271;143280;-59
2022/08/23 11:48:21;;;;;;;10.80;7.40;;;;;;;24.73;73.12;99377.33;432651;1271;142935;-59
2022/08/23 11:58:46;;;;;;;11.70;8.10;;;;;;;25.50;71.15;99378.59;431269;1272;145139;-59
2022/08/23 12:09:00;;;;;;;8.50;7.20;;;;;;;25.80;70.12;99389.48;432877;1271;145092;-58
2022/08/23 12:19:18;;;;;;;9.40;5.70;;;;;;;25.59;69.80;99391.61;432338;1271;142686;-61
2022/08/23 12:29:32;;;;;;;11.40;6.00;;;;;;;25.45;69.34;99397.33;432753;1271;188661;-59
2022/08/23 12:39:46;;;;;;;5.60;4.70;;;;;;;25.17;68.83;99396.12;433117;1271;141918;-62
2022/08/23 12:50:01;;;;;;;9.20;4.40;;;;;;;24.92;68.53;99388.72;433118;1271;143132;-60
2022/08/23 13:00:18;;;;;;;14.70;5.20;;;;;;;24.83;68.06;99381.30;430537;1271;143704;-59
2022/08/23 13:10:25;;;;;;;10.00;5.50;;;;;;;24.92;67.38;99372.04;431484;1271;142077;-60
2022/08/23 13:20:31;;;;;;;8.80;4.60;;;;;;;25.09;66.68;99361.95;432896;1271;143410;-60
2022/08/23 13:30:38;;;;;;;10.70;4.70;;;;;;;25.27;65.27;99364.55;432038;1271;142799;-60
2022/08/23 13:40:52;;;;;;;11.00;4.40;;;;;;;25.23;64.94;99344.65;431820;1271;164380;-60
2022/08/23 13:51:19;;;;;;;12.60;4.60;;;;;;;25.34;65.33;99316.37;430780;1271;186687;-60
2022/08/23 14:01:26;;;;;;;9.80;3.60;;;;;;;25.46;66.09;99317.42;434007;1271;145978;-60
2022/08/23 14:11:32;;;;;;;7.60;3.40;;;;;;;25.85;65.64;99366.65;429881;1271;145374;-60
2022/08/23 14:21:37;;;;;;;6.70;4.30;;;;;;;26.14;64.67;99398.39;433132;1271;142824;-60
2022/08/23 14:31:44;;;;;;;11.00;4.60;;;;;;;26.36;64.24;99392.66;430760;1271;144144;-59
2022/08/23 14:41:50;;;;;;;9.00;4.40;;;;;;;26.24;63.91;99402.17;447397;1271;142991;-61
2022/08/23 14:51:57;;;;;;;7.50;3.40;;;;;;;26.23;63.97;99385.75;444598;1271;143006;-61
2022/08/23 15:02:03;;;;;;;6.70;2.80;;;;;;;26.47;64.09;99376.98;430425;1271;144204;-60
2022/08/23 15:12:10;;;;;;;6.50;3.10;;;;;;;26.30;64.03;99380.02;431573;1271;189178;-61
2022/08/23 15:22:36;;;;;;;8.30;4.00;;;;;;;26.21;64.24;99381.03;431014;1271;143272;-60
2022/08/23 15:32:49;;;;;;;4.00;3.50;;;;;;;26.22;64.27;99402.92;431051;1270;143063;-60
2022/08/23 15:43:01;;;;;;;4.50;3.10;;;;;;;25.97;64.50;99430.88;430392;1271;143385;-60
2022/08/23 15:53:08;;;;;;;7.70;3.70;;;;;;;25.74;65.95;99435.41;430300;1271;143385;-60
2022/08/23 16:03:14;;;;;;;6.70;4.40;;;;;;;25.32;67.14;99443.02;432088;1271;146490;-60
2022/08/23 16:13:26;;;;;;;5.80;3.50;;;;;;;24.66;68.79;99457.15;431127;1271;141922;-59
2022/08/23 16:23:32;;;;;;;4.50;3.90;;;;;;;24.03;70.48;99455.35;430606;1271;142785;-61
2022/08/23 16:33:38;;;;;;;9.50;3.90;;;;;;;23.46;71.51;99450.95;431156;1271;142359;-59
2022/08/23 16:43:44;;;;;;;6.20;4.50;;;;;;;23.01;72.90;99448.61;429375;1271;143128;-60
2022/08/23 16:53:51;;;;;;;8.80;4.50;;;;;;;22.65;74.31;99456.02;430083;1271;142216;-60
2022/08/23 17:04:07;;;;;;;11.30;6.00;;;;;;;22.39;74.56;99458.67;430671;1271;142744;-61
2022/08/23 17:14:14;;;;;;;11.30;5.70;;;;;;;22.05;75.42;99471.31;430428;1271;142639;-60
2022/08/23 17:24:20;;;;;;;9.80;5.80;;;;;;;21.85;76.46;99500.28;431113;1271;143022;-60
2022/08/23 17:34:26;;;;;;;8.70;4.50;;;;;;;21.58;76.45;99508.02;430729;1271;142171;-60
2022/08/23 17:44:32;;;;;;;17.20;5.40;;;;;;;21.32;76.74;99483.52;430143;1271;148154;-60
2022/08/23 17:54:38;;;;;;;7.00;5.10;;;;;;;21.11;77.24;99473.29;430439;1271;143208;-61
2022/08/23 18:04:46;;;;;;;9.10;5.40;;;;;;;20.98;77.83;99489.13;430318;1271;200488;-61
2022/08/23 18:14:52;;;;;;;9.90;5.50;;;;;;;20.81;78.50;99502.21;430983;1271;142331;-60
2022/08/23 18:24:58;;;;;;;11.60;6.20;;;;;;;20.64;79.12;99507.55;430661;1271;196882;-59
2022/08/23 18:35:05;;;;;;;13.40;8.80;;;;;;;20.40;79.57;99514.20;429188;1271;1391581;-59
2022/08/23 18:45:12;;;;;;;16.40;6.90;;;;;;;20.20;79.96;99541.92;431078;1271;142817;-62
2022/08/23 18:55:19;;;;;;;10.50;7.00;;;;;;;20.07;80.23;99545.58;436858;1271;185843;-61
2022/08/23 19:05:25;;;;;;;11.10;8.80;;;;;;;20.01;81.05;99550.41;446679;1270;142056;-60
2022/08/23 19:15:33;;;;;;;8.60;5.00;;;;;;;19.96;81.76;99581.91;436966;1271;143526;-59
2022/08/23 19:25:39;;;;;;;16.10;6.30;;;;;;;19.92;82.15;99585.86;431375;1271;143933;-62
2022/08/23 19:35:45;;;;;;;10.10;5.40;;;;;;;19.77;82.52;99588.21;431252;1271;142661;-60
2022/08/23 19:45:51;;;;;;;13.50;6.60;;;;;;;19.65;83.29;99579.50;431434;1271;143005;-60
2022/08/23 19:56:03;;;;;;;8.30;6.10;;;;;;;19.55;83.79;99581.42;430397;1271;142161;-61
2022/08/23 20:06:09;;;;;;;7.10;6.40;;;;;;;19.39;84.47;99573.45;431926;1271;143101;-62
2022/08/23 20:16:25;;;;;;;8.00;5.50;;;;;;;19.26;85.19;99566.90;431475;1271;142183;-60
2022/08/23 20:26:33;;;;;;;9.10;5.10;;;;;;;19.18;85.81;99574.13;430853;1271;142651;-60
2022/08/23 20:36:39;;;;;;;5.40;4.90;;;;;;;19.07;86.20;99588.28;431745;1271;142824;-60
2022/08/23 20:46:45;;;;;;;9.60;6.10;;;;;;;18.94;86.52;99590.87;430579;1270;144185;-61
2022/08/23 20:56:55;;;;;;;12.50;6.30;;;;;;;18.83;87.03;99578.79;431292;1271;142977;-60
2022/08/23 21:07:00;;;;;;;7.90;6.50;;;;;;;18.73;87.44;99592.08;430447;1271;143658;-59
2022/08/23 21:17:06;;;;;;;9.20;7.40;;;;;;;18.67;87.59;99590.39;430326;1271;142522;-61
2022/08/23 21:27:12;;;;;;;8.10;6.50;;;;;;;18.56;87.76;99593.48;431251;1271;143548;-62
2022/08/23 21:37:18;;;;;;;8.80;6.20;;;;;;;18.49;88.28;99590.96;430749;1271;141548;-61
2022/08/23 21:47:24;;;;;;;6.20;5.40;;;;;;;18.41;88.62;99598.77;430316;1271;147784;-61
2022/08/23 21:57:30;;;;;;;6.70;6.10;;;;;;;18.39;88.94;99601.00;430705;1271;142893;-61
2022/08/23 22:07:38;;;;;;;8.70;6.20;;;;;;;18.35;89.38;99597.76;430868;1271;143065;-61
2022/08/23 22:17:44;;;;;;;7.90;6.00;;;;;;;18.41;89.61;99601.09;430927;1270;145115;-61
2022/08/23 22:27:50;;;;;;;9.20;6.80;;;;;;;18.43;89.74;99603.26;430832;1271;152475;-58
2022/08/23 22:37:56;;;;;;;11.50;8.20;;;;;;;18.41;90.05;99605.36;430172;1271;143169;-61
2022/08/23 22:48:18;;;;;;;8.80;7.90;;;;;;;18.34;90.29;99598.19;430751;1271;142456;-61
2022/08/23 22:58:25;;;;;;;13.40;9.50;;;;;;;18.26;90.48;99610.17;430980;1271;142776;-61
2022/08/23 23:08:30;;;;;;;12.30;10.90;;;;;;;18.23;90.64;99617.86;429746;1271;144486;-59
2022/08/23 23:18:39;;;;;;;11.90;9.80;;;;;;;18.28;91.32;99609.64;430530;1271;146237;-60
2022/08/23 23:28:45;;;;;;;18.50;16.60;;;;;;;18.25;91.26;99615.00;430582;1271;147610;-61
2022/08/23 23:38:51;;;;;;;16.20;11.60;;;;;;;18.32;91.94;99614.17;430778;1271;143181;-60
2022/08/23 23:48:57;;;;;;;12.60;11.20;;;;;;;18.30;91.93;99610.97;431105;1272;143732;-62
2022/08/23 23:59:03;;;;;;;12.80;10.90;;;;;;;18.21;91.99;99608.86;430923;1270;143214;-62
